Time;durP1;ratioP1;P1;durP2;ratioP2;P2;SDS_P1;SDS_P2;PMS_P1;PMS_P2;Temp;Humidity;BMP_temperature;BMP_pressure;BME280_temperature;BME280_humidity;BME280_pressure;Samples;Min_cycle;Max_cycle;Signal;HPM_P1;HPM_P2
2022/03/01 00:03:24;;;;;;;6.83;6.13;;;4.60;24.80;;;;;;10368321;28;20234;-77
2022/03/01 00:08:27;;;;;;;8.07;7.03;;;4.50;24.80;;;;;;10371975;28;21007;-78
2022/03/01 00:13:30;;;;;;;7.90;6.30;;;4.50;24.90;;;;;;10409843;28;20583;-78
2022/03/01 00:18:35;;;;;;;7.57;6.43;;;4.50;25.00;;;;;;10373381;28;20234;-77
2022/03/01 00:23:43;;;;;;;7.10;6.40;;;4.40;25.00;;;;;;10368779;28;20280;-77
2022/03/01 00:28:46;;;;;;;9.07;6.10;;;4.40;25.00;;;;;;10368253;28;20281;-78
2022/03/01 00:33:50;;;;;;;7.70;6.40;;;4.40;25.00;;;;;;10368465;28;20230;-77
2022/03/01 00:38:54;;;;;;;6.40;5.70;;;4.30;25.00;;;;;;10377303;28;20225;-77
2022/03/01 00:43:57;;;;;;;8.43;6.10;;;4.20;25.00;;;;;;10410365;28;20229;-77
2022/03/01 00:49:03;;;;;;;8.87;5.63;;;4.10;25.00;;;;;;10417984;28;20222;-77
2022/03/01 00:54:06;;;;;;;6.37;5.70;;;4.20;25.20;;;;;;10417456;28;20712;-78
2022/03/01 00:59:10;;;;;;;7.10;5.70;;;4.00;25.30;;;;;;10416369;28;20248;-76
2022/03/01 01:04:14;;;;;;;6.70;5.97;;;3.90;25.20;;;;;;10416170;28;20523;-77
2022/03/01 01:09:18;;;;;;;9.30;5.17;;;3.80;25.10;;;;;;10415016;28;20241;-77
2022/03/01 01:14:21;;;;;;;5.80;4.97;;;3.80;25.10;;;;;;10415369;28;20279;-77
2022/03/01 01:19:26;;;;;;;4.93;4.43;;;3.70;25.10;;;;;;10414733;28;20249;-77
2022/03/01 01:24:30;;;;;;;5.67;4.93;;;3.70;25.10;;;;;;10414614;28;20233;-77
2022/03/01 01:29:33;;;;;;;5.77;4.70;;;3.70;25.10;;;;;;10414555;28;20237;-77
2022/03/01 01:34:37;;;;;;;5.97;5.00;;;3.70;25.10;;;;;;10414275;28;20230;-77
2022/03/01 01:39:41;;;;;;;5.17;4.67;;;3.60;25.00;;;;;;10413821;28;20229;-77
2022/03/01 01:44:45;;;;;;;8.03;4.77;;;3.60;25.00;;;;;;10414035;28;20225;-78
2022/03/01 01:50:10;;;;;;;4.77;4.07;;;3.70;25.10;;;;;;10413224;28;20237;-76
2022/03/01 01:55:15;;;;;;;5.10;4.10;;;3.70;25.10;;;;;;10412680;28;20233;-77
2022/03/01 02:00:19;;;;;;;5.57;4.70;;;3.80;25.10;;;;;;10412626;28;20242;-77
2022/03/01 02:05:23;;;;;;;5.10;4.60;;;3.70;25.10;;;;;;10412558;28;20321;-77
2022/03/01 02:10:27;;;;;;;6.33;4.97;;;3.70;25.10;;;;;;10411797;28;20221;-78
2022/03/01 02:15:30;;;;;;;5.67;4.93;;;3.70;25.10;;;;;;10411635;28;20225;-77
2022/03/01 02:20:35;;;;;;;6.80;5.07;;;3.60;25.00;;;;;;10412094;28;20228;-77
2022/03/01 02:25:39;;;;;;;6.23;5.10;;;3.70;25.10;;;;;;10411126;28;20229;-77
2022/03/01 02:30:42;;;;;;;5.53;5.00;;;3.60;25.00;;;;;;10410740;28;20602;-77
2022/03/01 02:35:47;;;;;;;6.13;5.23;;;3.60;25.00;;;;;;10410606;28;20229;-77
2022/03/01 02:40:50;;;;;;;6.43;5.40;;;3.50;24.90;;;;;;10410220;28;20232;-77
2022/03/01 02:45:53;;;;;;;6.73;4.97;;;3.50;25.00;;;;;;10409094;28;20253;-76
2022/03/01 02:50:57;;;;;;;5.90;4.80;;;3.40;24.90;;;;;;10409829;28;20247;-77
2022/03/01 02:56:01;;;;;;;8.20;4.80;;;3.40;24.90;;;;;;10409415;28;20252;-77
2022/03/01 03:01:04;;;;;;;5.20;4.60;;;3.30;24.80;;;;;;10408734;28;20214;-77
2022/03/01 03:06:09;;;;;;;5.60;4.60;;;3.20;24.80;;;;;;10408304;28;20237;-76
2022/03/01 03:11:12;;;;;;;4.83;4.43;;;3.10;24.90;;;;;;10408946;28;20602;-77
2022/03/01 03:16:18;;;;;;;4.63;4.23;;;3.10;24.90;;;;;;10409204;28;20244;-77
2022/03/01 03:21:23;;;;;;;5.50;4.73;;;3.20;25.10;;;;;;10408588;28;20236;-76
2022/03/01 03:26:26;;;;;;;5.43;4.33;;;3.00;25.10;;;;;;10408254;28;20236;-77
2022/03/01 03:31:30;;;;;;;4.70;4.20;;;2.90;25.00;;;;;;10407827;28;20774;-77
2022/03/01 03:36:35;;;;;;;4.97;4.03;;;2.90;25.20;;;;;;10408017;28;20272;-77
2022/03/01 03:41:38;;;;;;;4.80;4.00;;;2.80;25.20;;;;;;10407630;28;20225;-77
2022/03/01 03:46:42;;;;;;;4.83;4.10;;;2.80;25.20;;;;;;10407591;28;20233;-76
2022/03/01 03:51:47;;;;;;;6.47;4.33;;;2.70;25.20;;;;;;10407688;28;20225;-76
2022/03/01 03:56:50;;;;;;;5.07;4.07;;;2.60;25.40;;;;;;10407112;28;20710;-76
2022/03/01 04:01:54;;;;;;;4.40;3.67;;;2.60;25.40;;;;;;10407036;28;20225;-76
2022/03/01 04:06:58;;;;;;;4.63;3.63;;;2.60;25.50;;;;;;10406510;28;20239;-76
2022/03/01 04:12:02;;;;;;;5.73;3.83;;;2.50;25.60;;;;;;10406874;28;20225;-76
2022/03/01 04:17:05;;;;;;;4.27;3.70;;;2.60;25.60;;;;;;10389692;28;20619;-76
2022/03/01 04:22:09;;;;;;;4.93;4.10;;;2.70;25.60;;;;;;10382786;28;20225;-77
2022/03/01 04:27:13;;;;;;;5.30;3.93;;;2.60;25.60;;;;;;10379889;28;20610;-77
2022/03/01 04:32:16;;;;;;;4.40;3.60;;;2.60;25.50;;;;;;10373871;28;20698;-75
2022/03/01 04:37:21;;;;;;;5.20;4.10;;;2.60;25.60;;;;;;10373587;28;20245;-75
2022/03/01 04:42:24;;;;;;;5.07;3.93;;;2.60;25.60;;;;;;10393645;28;20231;-75
2022/03/01 04:47:27;;;;;;;5.37;4.03;;;2.60;25.60;;;;;;10393729;28;20240;-75
2022/03/01 04:52:32;;;;;;;6.07;4.03;;;2.50;25.60;;;;;;10393785;28;20607;-75
2022/03/01 04:57:35;;;;;;;5.23;3.83;;;2.50;25.60;;;;;;10412437;28;20226;-74
2022/03/01 05:02:40;;;;;;;5.63;4.10;;;2.50;25.60;;;;;;10375510;28;20230;-75
2022/03/01 05:07:47;;;;;;;6.03;3.90;;;2.50;25.80;;;;;;10372547;28;20237;-76
2022/03/01 05:12:52;;;;;;;4.50;3.83;;;2.40;25.90;;;;;;10388653;28;20230;-76
2022/03/01 05:17:56;;;;;;;5.67;4.10;;;2.30;25.80;;;;;;10379999;28;20222;-76
2022/03/01 05:23:01;;;;;;;5.67;3.80;;;2.30;25.80;;;;;;10404235;28;20221;-76
2022/03/01 05:28:05;;;;;;;4.70;3.97;;;2.30;26.00;;;;;;10411878;28;20225;-76
2022/03/01 05:33:08;;;;;;;3.87;3.47;;;2.30;25.90;;;;;;10370711;28;20715;-76
2022/03/01 05:38:13;;;;;;;4.60;3.97;;;2.40;25.90;;;;;;10371214;28;20231;-76
2022/03/01 05:43:16;;;;;;;4.17;3.77;;;2.40;26.00;;;;;;10381886;28;20253;-75
2022/03/01 05:48:19;;;;;;;4.50;4.10;;;2.30;25.90;;;;;;10376212;28;20238;-76
2022/03/01 05:53:24;;;;;;;5.27;3.80;;;2.30;26.00;;;;;;10373770;28;20229;-75
2022/03/01 05:58:27;;;;;;;6.57;4.27;;;2.30;26.00;;;;;;10398632;28;20234;-76
2022/03/01 06:03:30;;;;;;;4.30;3.33;;;2.20;26.10;;;;;;10405761;28;20228;-76
2022/03/01 06:08:35;;;;;;;5.47;4.17;;;2.20;26.10;;;;;;10389282;28;20263;-76
2022/03/01 06:13:40;;;;;;;5.07;4.37;;;2.20;26.10;;;;;;10393569;28;20718;-75
2022/03/01 06:18:43;;;;;;;4.23;3.67;;;2.30;26.10;;;;;;10407748;28;20222;-77
2022/03/01 06:23:49;;;;;;;4.57;3.57;;;2.30;26.10;;;;;;10409670;28;20225;-76
2022/03/01 06:28:52;;;;;;;6.57;3.67;;;2.40;26.20;;;;;;10388007;28;20234;-76
2022/03/01 06:33:56;;;;;;;5.40;4.13;;;2.40;26.10;;;;;;10379061;28;20265;-77
2022/03/01 06:39:00;;;;;;;4.90;4.40;;;2.40;26.10;;;;;;10396825;28;20233;-76
2022/03/01 06:44:04;;;;;;;5.03;4.17;;;2.30;26.20;;;;;;10383837;28;20240;-76
2022/03/01 06:49:07;;;;;;;5.30;4.40;;;2.30;26.20;;;;;;10385864;28;20722;-77
2022/03/01 06:54:12;;;;;;;5.63;4.13;;;2.30;26.20;;;;;;10391509;28;20327;-75
2022/03/01 06:59:16;;;;;;;4.50;3.70;;;2.40;26.30;;;;;;10387651;28;20740;-76
2022/03/01 07:04:19;;;;;;;4.73;4.13;;;2.50;26.50;;;;;;10377739;28;20242;-76
2022/03/01 07:09:23;;;;;;;5.17;4.03;;;2.50;26.50;;;;;;10397163;28;20242;-75
2022/03/01 07:14:27;;;;;;;5.57;3.83;;;2.50;26.50;;;;;;10407073;28;20233;-75
2022/03/01 07:19:30;;;;;;;5.30;4.47;;;2.50;26.40;;;;;;10406997;28;20236;-75
2022/03/01 07:24:34;;;;;;;4.93;4.23;;;2.70;26.60;;;;;;10400934;28;20707;-77
2022/03/01 07:29:38;;;;;;;5.70;4.13;;;2.70;26.70;;;;;;10366206;28;20230;-74
2022/03/01 07:34:42;;;;;;;5.00;4.20;;;2.70;26.60;;;;;;10366104;28;20256;-73
2022/03/01 07:39:47;;;;;;;5.80;4.60;;;2.80;26.60;;;;;;10365511;28;20229;-73
2022/03/01 07:44:50;;;;;;;6.00;4.47;;;2.90;26.80;;;;;;10365208;28;20242;-74
2022/03/01 07:49:53;;;;;;;8.43;4.50;;;2.90;26.70;;;;;;10365701;28;20640;-74
2022/03/01 07:54:57;;;;;;;5.93;4.60;;;3.10;26.70;;;;;;10365210;28;20222;-75
2022/03/01 08:00:01;;;;;;;6.80;4.90;;;3.10;26.70;;;;;;10366237;28;20222;-75
2022/03/01 08:05:05;;;;;;;5.40;4.43;;;3.20;26.60;;;;;;10367315;28;20635;-76
2022/03/01 08:10:24;;;;;;;5.33;4.50;;;3.30;26.70;;;;;;10367953;28;20237;-76
2022/03/01 08:15:30;;;;;;;6.27;4.70;;;3.50;26.90;;;;;;10368220;28;20226;-76
2022/03/01 08:20:33;;;;;;;5.60;4.80;;;3.70;26.80;;;;;;10399243;28;20222;-76
2022/03/01 08:25:38;;;;;;;6.17;5.07;;;3.80;27.40;;;;;;10389812;28;20221;-76
2022/03/01 08:30:41;;;;;;;5.70;4.80;;;4.10;27.10;;;;;;10392028;28;20242;-77
2022/03/01 08:35:44;;;;;;;4.77;4.27;;;4.40;27.00;;;;;;10387656;28;20577;-76
2022/03/01 08:40:49;;;;;;;5.73;4.80;;;4.60;26.80;;;;;;10396410;28;20253;-78
2022/03/01 08:45:53;;;;;;;5.63;5.03;;;4.80;26.60;;;;;;10378253;28;20236;-77
2022/03/01 08:50:56;;;;;;;5.57;4.93;;;5.00;26.40;;;;;;10380289;28;20230;-76
2022/03/01 08:56:01;;;;;;;5.47;4.90;;;5.20;26.60;;;;;;10382519;28;20237;-77
2022/03/01 09:01:04;;;;;;;5.73;4.80;;;5.40;26.20;;;;;;10383834;28;20228;-76
2022/03/01 09:06:08;;;;;;;4.97;4.47;;;5.60;26.30;;;;;;10391990;28;20809;-76
2022/03/01 09:11:12;;;;;;;6.13;4.57;;;5.70;26.40;;;;;;10395831;28;20261;-76
2022/03/01 09:16:16;;;;;;;5.40;4.90;;;5.90;26.30;;;;;;10402676;28;20240;-77
2022/03/01 09:21:19;;;;;;;5.07;4.57;;;6.00;26.10;;;;;;10406401;28;20236;-76
2022/03/01 09:26:24;;;;;;;5.87;5.10;;;6.10;25.60;;;;;;10399489;28;20236;-78
2022/03/01 09:31:28;;;;;;;6.63;5.03;;;6.20;26.00;;;;;;10398563;28;20226;-76
2022/03/01 09:36:32;;;;;;;5.93;4.57;;;6.40;25.90;;;;;;10400122;28;20258;-80
2022/03/01 09:41:37;;;;;;;6.60;4.87;;;6.60;25.90;;;;;;10397980;28;20245;-80
2022/03/01 09:46:40;;;;;;;5.77;5.00;;;6.80;25.50;;;;;;10395740;28;20846;-78
2022/03/01 09:51:43;;;;;;;5.60;5.00;;;6.90;24.90;;;;;;10390429;28;20229;-78
2022/03/01 09:56:48;;;;;;;5.30;4.80;;;7.10;25.40;;;;;;10386545;28;20238;-79
2022/03/01 10:01:52;;;;;;;4.90;4.43;;;7.20;25.40;;;;;;10397691;28;20250;-77
2022/03/01 10:06:56;;;;;;;5.20;4.70;;;7.40;25.40;;;;;;10398958;28;20750;-79
2022/03/01 10:12:06;;;;;;;5.27;4.77;;;7.50;25.40;;;;;;10394511;28;20277;-79
2022/03/01 10:17:16;;;;;;;5.33;4.80;;;7.70;24.30;;;;;;10391158;28;20226;-79
2022/03/01 10:22:22;;;;;;;4.80;4.40;;;7.90;23.80;;;;;;10394327;28;20241;-79
2022/03/01 10:27:30;;;;;;;5.27;4.40;;;8.00;24.50;;;;;;10408050;28;20229;-78
2022/03/01 10:32:33;;;;;;;4.93;4.40;;;8.20;23.80;;;;;;10392354;28;20340;-77
2022/03/01 10:37:42;;;;;;;5.10;4.30;;;8.10;24.00;;;;;;10405650;28;20240;-78
2022/03/01 10:42:58;;;;;;;5.63;4.30;;;8.20;24.10;;;;;;10395568;28;20237;-78
2022/03/01 10:48:02;;;;;;;5.13;4.70;;;8.20;23.10;;;;;;10396509;28;20316;-78
2022/03/01 10:53:07;;;;;;;5.33;4.40;;;8.30;23.70;;;;;;10404883;28;20296;-78
2022/03/01 10:58:14;;;;;;;6.13;4.53;;;8.30;23.80;;;;;;10398179;28;20245;-79
2022/03/01 11:03:17;;;;;;;4.90;4.40;;;8.40;23.70;;;;;;10399562;28;20926;-78
2022/03/01 11:08:23;;;;;;;5.23;4.13;;;8.50;24.20;;;;;;10402843;28;20264;-79
2022/03/01 11:13:28;;;;;;;5.03;4.37;;;8.60;23.70;;;;;;10407737;28;20236;-79
2022/03/01 11:18:41;;;;;;;5.40;4.37;;;8.70;23.40;;;;;;10404253;28;20702;-78
2022/03/01 11:23:45;;;;;;;6.33;4.97;;;8.80;23.40;;;;;;10392047;28;20230;-79
2022/03/01 11:28:55;;;;;;;4.93;4.43;;;8.90;22.80;;;;;;10386053;28;20230;-76
2022/03/01 11:33:59;;;;;;;5.07;4.57;;;9.00;22.40;;;;;;10380819;28;20920;-78
2022/03/01 11:39:11;;;;;;;5.30;4.80;;;9.00;22.90;;;;;;10373868;28;20238;-78
2022/03/01 11:44:19;;;;;;;4.43;4.03;;;9.00;22.20;;;;;;10378657;28;20230;-76
2022/03/01 11:49:22;;;;;;;5.27;4.77;;;9.00;22.40;;;;;;10376866;28;20248;-77
2022/03/01 11:54:29;;;;;;;7.73;4.73;;;9.10;23.10;;;;;;10377739;28;20236;-77
2022/03/01 11:59:38;;;;;;;4.97;4.47;;;9.20;23.40;;;;;;10376933;28;20222;-77
2022/03/01 12:04:57;;;;;;;4.80;4.03;;;9.30;22.40;;;;;;10379106;28;20278;-77
2022/03/01 12:10:02;;;;;;;4.83;4.40;;;9.40;23.10;;;;;;10370808;28;20250;-79
2022/03/01 12:15:08;;;;;;;4.47;3.90;;;9.40;22.60;;;;;;10381685;28;20256;-78
2022/03/01 12:20:14;;;;;;;4.60;4.07;;;9.50;21.60;;;;;;10381527;28;20222;-79
2022/03/01 12:25:17;;;;;;;5.83;4.27;;;9.50;22.40;;;;;;10377974;28;20317;-77
2022/03/01 12:30:23;;;;;;;5.53;4.73;;;9.50;21.80;;;;;;10388743;28;21110;-77
2022/03/01 12:35:28;;;;;;;4.83;4.30;;;9.60;21.70;;;;;;10387305;28;20225;-77
2022/03/01 12:40:33;;;;;;;5.30;4.10;;;9.70;22.00;;;;;;10388705;28;20325;-77
2022/03/01 12:45:39;;;;;;;5.57;4.43;;;9.80;22.60;;;;;;10392960;28;20580;-77
2022/03/01 12:50:48;;;;;;;4.60;4.20;;;9.90;22.30;;;;;;10391888;28;20226;-77
2022/03/01 12:55:53;;;;;;;4.70;4.30;;;10.10;21.30;;;;;;10389539;28;20230;-78
2022/03/01 13:01:07;;;;;;;5.47;4.20;;;10.20;21.50;;;;;;10391187;28;20687;-78
2022/03/01 13:06:12;;;;;;;5.80;4.60;;;10.20;20.80;;;;;;10397943;28;20230;-78
2022/03/01 13:11:16;;;;;;;5.00;3.97;;;10.30;21.50;;;;;;10387192;28;20256;-77
2022/03/01 13:16:22;;;;;;;4.40;4.00;;;10.40;21.50;;;;;;10389693;28;20233;-77
2022/03/01 13:21:27;;;;;;;4.80;3.93;;;10.50;21.20;;;;;;10395944;28;20226;-78
2022/03/01 13:26:31;;;;;;;3.53;3.23;;;10.60;20.50;;;;;;10397502;28;20718;-79
2022/03/01 13:31:36;;;;;;;3.83;3.20;;;10.60;21.10;;;;;;10401020;28;20254;-78
2022/03/01 13:36:42;;;;;;;3.77;3.47;;;10.70;20.10;;;;;;10396191;28;20947;-76
2022/03/01 13:41:47;;;;;;;3.83;3.00;;;10.70;20.40;;;;;;10382950;28;20226;-76
2022/03/01 13:46:57;;;;;;;4.60;3.23;;;10.70;20.50;;;;;;10394142;28;20230;-79
2022/03/01 13:52:10;;;;;;;4.00;3.60;;;10.80;19.60;;;;;;10395395;28;20614;-80
2022/03/01 13:57:25;;;;;;;3.63;3.33;;;10.80;18.50;;;;;;10385909;28;20234;-77
2022/03/01 14:02:29;;;;;;;4.20;3.80;;;10.80;19.10;;;;;;10391804;28;20221;-78
2022/03/01 14:07:34;;;;;;;3.80;3.40;;;10.90;20.20;;;;;;10384018;28;20324;-78
2022/03/01 14:12:39;;;;;;;4.10;3.70;;;11.00;20.30;;;;;;10379726;28;20710;-77
2022/03/01 14:17:59;;;;;;;4.33;3.93;;;11.00;20.00;;;;;;10386037;28;20232;-77
2022/03/01 14:23:03;;;;;;;4.63;3.50;;;11.10;18.90;;;;;;10380906;28;20224;-78
2022/03/01 14:28:07;;;;;;;3.30;3.00;;;11.10;20.00;;;;;;10389431;28;20233;-77
2022/03/01 14:33:12;;;;;;;3.80;3.47;;;11.20;19.80;;;;;;10384625;28;20226;-78
2022/03/01 14:38:15;;;;;;;3.70;3.37;;;11.20;19.50;;;;;;10393824;28;20229;-78
2022/03/01 14:43:23;;;;;;;4.37;3.60;;;11.20;19.40;;;;;;10391980;28;20230;-78
2022/03/01 14:48:28;;;;;;;3.50;3.10;;;11.20;19.40;;;;;;10393783;28;20260;-78
2022/03/01 14:53:31;;;;;;;3.60;3.27;;;11.30;19.50;;;;;;10389686;28;20233;-78
2022/03/01 14:58:35;;;;;;;4.33;3.60;;;11.30;19.40;;;;;;10391792;28;20248;-78
2022/03/01 15:03:39;;;;;;;6.73;4.50;;;11.30;19.50;;;;;;10384510;28;20221;-77
2022/03/01 15:08:44;;;;;;;3.80;3.50;;;11.30;18.70;;;;;;10392535;28;20254;-77
2022/03/01 15:13:47;;;;;;;4.10;3.60;;;11.30;19.40;;;;;;10390447;28;20239;-77
2022/03/01 15:18:53;;;;;;;4.60;3.87;;;11.30;19.40;;;;;;10392221;28;20226;-78
2022/03/01 15:23:58;;;;;;;3.40;3.10;;;11.30;19.00;;;;;;10386155;28;20877;-77
2022/03/01 15:29:01;;;;;;;5.47;3.60;;;11.30;18.60;;;;;;10377856;28;20225;-76
2022/03/01 15:34:06;;;;;;;3.80;3.37;;;11.20;18.70;;;;;;10374002;28;20234;-76
2022/03/01 15:39:09;;;;;;;4.73;3.87;;;11.10;19.50;;;;;;10383484;28;20268;-77
2022/03/01 15:44:14;;;;;;;3.40;3.20;;;11.10;19.30;;;;;;10385620;28;20667;-77
2022/03/01 15:49:18;;;;;;;4.00;3.30;;;11.10;19.30;;;;;;10392548;28;20226;-77
2022/03/01 15:54:22;;;;;;;2.97;2.77;;;11.10;18.40;;;;;;10386503;28;20260;-77
2022/03/01 15:59:25;;;;;;;3.20;2.90;;;11.00;19.10;;;;;;10392422;28;20230;-77
2022/03/01 16:04:29;;;;;;;3.23;2.93;;;11.00;19.20;;;;;;10380604;28;20229;-77
2022/03/01 16:09:38;;;;;;;3.00;2.80;;;11.00;18.30;;;;;;10387403;28;20238;-78
2022/03/01 16:14:41;;;;;;;3.50;3.10;;;10.90;18.40;;;;;;10391595;28;20227;-78
2022/03/01 16:19:46;;;;;;;3.57;2.97;;;10.80;18.80;;;;;;10395966;28;20226;-77
2022/03/01 16:24:49;;;;;;;4.07;3.40;;;10.80;19.60;;;;;;10399354;28;20721;-78
2022/03/01 16:29:53;;;;;;;3.80;3.40;;;10.80;19.10;;;;;;10399452;28;20229;-78
2022/03/01 16:34:57;;;;;;;4.33;3.93;;;10.70;18.90;;;;;;10394650;28;20316;-78
2022/03/01 16:40:01;;;;;;;5.53;3.30;;;10.70;18.60;;;;;;10403141;28;20765;-78
2022/03/01 16:45:06;;;;;;;7.70;6.90;;;10.70;18.70;;;;;;10397094;28;20638;-78
2022/03/01 16:50:10;;;;;;;7.10;6.40;;;10.70;18.70;;;;;;10403832;28;20361;-79
2022/03/01 16:55:14;;;;;;;6.37;5.43;;;10.60;18.40;;;;;;10405794;28;20234;-78
2022/03/01 17:00:17;;;;;;;5.07;3.37;;;10.60;19.00;;;;;;10407126;28;20711;-79
2022/03/01 17:05:22;;;;;;;4.97;3.57;;;10.60;19.00;;;;;;10402222;28;20227;-79
2022/03/01 17:10:26;;;;;;;5.27;4.63;;;10.50;18.90;;;;;;10407135;28;20226;-79
2022/03/01 17:15:30;;;;;;;5.73;5.13;;;10.40;18.80;;;;;;10411621;28;20233;-79
2022/03/01 17:20:37;;;;;;;5.00;4.50;;;10.30;18.70;;;;;;10408832;28;20225;-79
2022/03/01 17:25:40;;;;;;;14.50;11.20;;;10.20;18.70;;;;;;10403056;28;20252;-79
2022/03/01 17:30:43;;;;;;;11.53;8.90;;;10.10;18.60;;;;;;10404054;28;20292;-79
2022/03/01 17:35:48;;;;;;;7.87;6.63;;;9.90;19.20;;;;;;10404429;28;20225;-78
2022/03/01 17:40:52;;;;;;;6.00;5.40;;;9.80;19.10;;;;;;10401633;28;20221;-79
2022/03/01 17:45:56;;;;;;;6.47;5.87;;;9.60;19.60;;;;;;10403036;28;20678;-78
2022/03/01 17:51:00;;;;;;;6.27;5.37;;;9.40;19.70;;;;;;10404886;28;20221;-79
2022/03/01 17:56:05;;;;;;;5.30;4.73;;;9.30;19.80;;;;;;10395710;28;20225;-79
2022/03/01 18:01:08;;;;;;;8.60;4.50;;;9.20;19.70;;;;;;10397041;28;20550;-81
2022/03/01 18:06:13;;;;;;;6.60;4.67;;;9.00;19.70;;;;;;10386336;28;20317;-79
2022/03/01 18:11:17;;;;;;;7.60;6.83;;;8.80;20.10;;;;;;10402495;28;20704;-80
2022/03/01 18:16:20;;;;;;;7.30;6.60;;;8.60;19.60;;;;;;10392140;28;20713;-80
2022/03/01 18:21:27;;;;;;;7.83;6.97;;;8.50;19.80;;;;;;10406931;28;20237;-79
2022/03/01 18:26:32;;;;;;;9.00;6.60;;;8.40;19.90;;;;;;10419440;28;20230;-79
2022/03/01 18:31:36;;;;;;;10.37;9.23;;;8.30;20.00;;;;;;10420660;28;20268;-78
2022/03/01 18:36:41;;;;;;;11.57;7.97;;;8.10;20.20;;;;;;10412442;28;20226;-78
2022/03/01 18:41:44;;;;;;;7.47;6.70;;;8.10;20.30;;;;;;10407161;28;20341;-78
2022/03/01 18:46:47;;;;;;;6.60;6.00;;;8.00;20.50;;;;;;10391867;28;20238;-78
2022/03/01 18:51:52;;;;;;;8.10;7.37;;;7.80;20.50;;;;;;10387243;28;20232;-77
2022/03/01 18:56:56;;;;;;;7.33;6.30;;;7.80;20.70;;;;;;10389385;28;20235;-77
2022/03/01 19:01:59;;;;;;;6.93;6.30;;;7.70;20.60;;;;;;10391774;28;20289;-77
2022/03/01 19:07:05;;;;;;;7.00;6.30;;;7.60;20.70;;;;;;10383381;28;20234;-78
2022/03/01 19:12:11;;;;;;;9.17;8.20;;;7.50;20.80;;;;;;10396152;28;20236;-78
2022/03/01 19:17:14;;;;;;;12.93;11.50;;;7.40;20.70;;;;;;10394365;28;20345;-77
2022/03/01 19:22:20;;;;;;;10.33;9.33;;;7.30;20.70;;;;;;10410132;28;20218;-78
2022/03/01 19:27:23;;;;;;;8.97;8.07;;;7.20;20.80;;;;;;10418653;28;20236;-78
2022/03/01 19:32:27;;;;;;;8.97;8.07;;;7.10;20.80;;;;;;10394638;28;20244;-79
2022/03/01 19:37:32;;;;;;;9.13;8.00;;;6.90;20.80;;;;;;10406656;28;20233;-78
2022/03/01 19:42:36;;;;;;;10.23;8.87;;;6.80;20.90;;;;;;10380258;28;20226;-78
2022/03/01 19:47:43;;;;;;;12.07;10.73;;;6.70;21.00;;;;;;10386482;28;20325;-78
2022/03/01 19:52:52;;;;;;;14.13;10.70;;;6.60;21.10;;;;;;10419600;28;20292;-78
2022/03/01 19:57:55;;;;;;;9.20;8.30;;;6.50;21.20;;;;;;10397739;28;20237;-79
2022/03/01 20:03:00;;;;;;;10.17;8.67;;;6.40;21.20;;;;;;10393841;28;20223;-78
2022/03/01 20:08:06;;;;;;;11.83;10.10;;;6.30;21.40;;;;;;10396422;28;20227;-78
2022/03/01 20:13:11;;;;;;;13.73;11.57;;;6.30;21.40;;;;;;10404301;28;20260;-79
2022/03/01 20:18:16;;;;;;;11.73;9.80;;;6.10;21.30;;;;;;10412587;28;20240;-79
2022/03/01 20:23:22;;;;;;;12.50;9.93;;;6.00;21.30;;;;;;10403089;28;20688;-78
2022/03/01 20:28:25;;;;;;;10.43;9.33;;;5.90;21.60;;;;;;10419414;28;20241;-79
2022/03/01 20:33:29;;;;;;;10.00;7.00;;;5.80;21.60;;;;;;10395166;28;20745;-77
2022/03/01 20:38:34;;;;;;;8.70;7.80;;;5.70;21.60;;;;;;10388697;28;20234;-77
2022/03/01 20:43:38;;;;;;;14.20;9.80;;;5.60;21.90;;;;;;10385425;28;20230;-76
2022/03/01 20:48:42;;;;;;;12.97;9.77;;;5.60;21.90;;;;;;10376098;28;20864;-77
2022/03/01 20:53:48;;;;;;;10.93;9.00;;;5.50;22.00;;;;;;10382501;28;20317;-76
2022/03/01 20:58:52;;;;;;;11.63;9.40;;;5.50;22.20;;;;;;10387146;28;20229;-77
2022/03/01 21:03:55;;;;;;;11.00;9.10;;;5.40;22.10;;;;;;10393366;28;20222;-75
2022/03/01 21:09:00;;;;;;;10.80;8.93;;;5.40;22.10;;;;;;10395155;28;20237;-75
2022/03/01 21:14:04;;;;;;;12.97;9.27;;;5.40;22.20;;;;;;10389235;28;20226;-76
2022/03/01 21:19:07;;;;;;;9.43;7.97;;;5.40;22.20;;;;;;10386654;28;20596;-76
2022/03/01 21:24:12;;;;;;;8.10;7.30;;;5.30;22.70;;;;;;10387203;28;20226;-75
2022/03/01 21:29:16;;;;;;;9.50;8.50;;;5.20;22.20;;;;;;10393880;28;20226;-76
2022/03/01 21:34:19;;;;;;;10.30;8.50;;;5.20;22.30;;;;;;10390197;28;20922;-75
2022/03/01 21:39:25;;;;;;;10.10;8.77;;;5.10;22.30;;;;;;10391007;28;20592;-76
2022/03/01 21:44:29;;;;;;;11.10;8.83;;;5.00;22.30;;;;;;10388210;28;20657;-76
2022/03/01 21:49:32;;;;;;;11.50;8.83;;;4.90;22.20;;;;;;10389427;28;20234;-77
2022/03/01 21:54:37;;;;;;;11.47;8.53;;;4.80;22.20;;;;;;10385116;28;20234;-76
2022/03/01 21:59:41;;;;;;;10.23;8.33;;;4.60;22.40;;;;;;10387620;28;20248;-77
2022/03/01 22:04:44;;;;;;;9.37;8.23;;;4.50;22.30;;;;;;10386917;28;20300;-76
2022/03/01 22:09:49;;;;;;;10.33;8.23;;;4.40;22.50;;;;;;10386507;28;20229;-76
2022/03/01 22:14:52;;;;;;;9.80;8.50;;;4.30;22.70;;;;;;10384392;28;20226;-76
2022/03/01 22:19:56;;;;;;;8.63;7.37;;;4.20;22.60;;;;;;10383530;28;20231;-76
2022/03/01 22:25:00;;;;;;;9.57;7.90;;;4.10;22.60;;;;;;10385179;28;20595;-76
2022/03/01 22:30:05;;;;;;;8.83;7.70;;;4.10;22.80;;;;;;10382905;28;20230;-76
2022/03/01 22:35:09;;;;;;;9.63;8.20;;;4.00;22.80;;;;;;10385844;28;20860;-76
2022/03/01 22:40:15;;;;;;;8.77;7.87;;;4.10;22.90;;;;;;10381548;28;20233;-76
2022/03/01 22:45:19;;;;;;;10.63;8.30;;;3.90;22.80;;;;;;10382750;28;20221;-76
2022/03/01 22:50:26;;;;;;;9.47;7.50;;;3.80;22.80;;;;;;10391371;28;20241;-77
2022/03/01 22:55:31;;;;;;;7.63;6.83;;;3.70;22.90;;;;;;10388929;28;20229;-77
2022/03/01 23:01:00;;;;;;;10.50;8.40;;;3.70;23.00;;;;;;10393892;28;20225;-77
2022/03/01 23:06:04;;;;;;;10.23;9.13;;;3.60;23.30;;;;;;10390350;28;20316;-77
2022/03/01 23:11:09;;;;;;;11.33;9.60;;;3.60;23.10;;;;;;10382533;28;20311;-77
2022/03/01 23:16:16;;;;;;;10.80;9.17;;;3.60;23.10;;;;;;10383124;28;20226;-77
2022/03/01 23:21:19;;;;;;;12.93;9.17;;;3.60;23.20;;;;;;10383762;28;20276;-76
2022/03/01 23:26:24;;;;;;;10.13;8.63;;;3.40;23.00;;;;;;10389088;28;20269;-76
2022/03/01 23:31:28;;;;;;;10.87;8.73;;;3.30;23.10;;;;;;10391602;28;20236;-77
2022/03/01 23:36:31;;;;;;;8.37;7.47;;;3.30;23.20;;;;;;10389608;28;20229;-77
2022/03/01 23:41:35;;;;;;;9.77;8.57;;;3.30;23.30;;;;;;10377417;28;20247;-76
2022/03/01 23:46:38;;;;;;;11.93;8.63;;;3.20;23.30;;;;;;10383510;28;20637;-76
2022/03/01 23:51:42;;;;;;;8.03;7.23;;;3.20;23.20;;;;;;10389349;28;20229;-76
2022/03/01 23:56:47;;;;;;;8.97;7.50;;;3.10;23.20;;;;;;10381371;28;20241;-76
